Sign-in with your pilot id or email, or register

ICAO: EPWA Name / Country: Warszawa-Okecie / Poland
Latitude: 52.1657 Longitude: 20.9671
Total Arrivals:
Deprecated: Non-static method AirportData::getarrflights() should not be called statically, assuming $this from incompatible context in /var/www/customers/vh-7192/web/home/phpvms/core/templates/airport_info.tpl on line 18
7
Total Departures:
Deprecated: Non-static method AirportData::getdeptflights() should not be called statically, assuming $this from incompatible context in /var/www/customers/vh-7192/web/home/phpvms/core/templates/airport_info.tpl on line 21
12
Latest Arrival: MTA840 (LHBP-EPWA) Tibor Berces Latest Departure: MTA841 (EPWA-LHBP) Tibor Berces
Metar: EPWA 241700Z 02007KT CAVOK 26/20 Q1013 NOSIG
More info

Charts for EPWA


NOTAM


Warning: file_get_contents(http://api.vateud.net/notams/EPWA.json): failed to open stream: HTTP request failed! HTTP/1.1 404 Not Found in /var/www/customers/vh-7192/web/home/phpvms/core/common/NOTAMSData.class.php on line 18

Warning: Invalid argument supplied for foreach() in /var/www/customers/vh-7192/web/home/phpvms/core/common/NOTAMSData.class.php on line 22

Warszawa-Okecie